createdAt,value
2024-01-09T00:00:39.987Z,-0.91606
2024-01-09T00:05:41.484Z,-0.72584
2024-01-09T00:10:42.942Z,-0.65217
2024-01-09T00:15:44.384Z,-0.6871
2024-01-09T00:20:46.661Z,-0.71886
2024-01-09T00:25:48.091Z,-0.93257
2024-01-09T00:30:49.687Z,-1.11708
2024-01-09T00:35:51.249Z,-0.76141
2024-01-09T00:40:52.699Z,-1.04404
2024-01-09T00:45:54.140Z,-1.07452
2024-01-09T00:50:55.623Z,-1.12057
2024-01-09T00:55:57.224Z,-1.15931
2024-01-09T01:00:58.789Z,-1.45305
2024-01-09T01:06:00.347Z,-0.9529
2024-01-09T01:11:01.907Z,-1.27522
2024-01-09T01:16:03.559Z,-1.64295
2024-01-09T01:21:05.190Z,-1.96019
2024-01-09T01:26:06.703Z,-2.12786
2024-01-09T01:31:08.232Z,-2.08753
2024-01-09T01:36:09.691Z,-1.25712
2024-01-09T01:41:11.258Z,-1.24156
2024-01-09T01:46:12.694Z,-1.22346
2024-01-09T01:51:14.107Z,-1.25394
2024-01-09T01:56:15.529Z,-1.38255
2024-01-09T02:01:16.968Z,-1.46131
2024-01-09T02:06:18.651Z,-1.26061
2024-01-09T02:11:20.229Z,-1.55689
2024-01-09T02:16:21.663Z,-1.31999
2024-01-09T02:21:23.077Z,-1.34572
2024-01-09T02:26:39.969Z,-1.23267
2024-01-09T02:31:55.189Z,-1.27808
2024-01-09T02:36:56.606Z,-1.93351
2024-01-09T02:41:58.153Z,-1.78299
2024-01-09T02:46:59.566Z,-1.85667
2024-01-09T02:52:01.048Z,-1.60103
2024-01-09T02:57:02.592Z,-1.79506
2024-01-09T03:02:04.010Z,-2.71978
2024-01-09T03:07:05.539Z,-2.61498
2024-01-09T03:12:07.140Z,-2.3349
2024-01-09T03:17:08.591Z,-2.41556
2024-01-09T03:22:10.108Z,-1.85984
2024-01-09T03:27:11.579Z,-1.72901
2024-01-09T03:32:13.006Z,-1.30856
2024-01-09T03:37:14.580Z,-1.18027
2024-01-09T03:42:16.068Z,-1.52006
2024-01-09T03:47:17.618Z,-1.41971
2024-01-09T03:52:19.235Z,-1.75282
2024-01-09T03:57:20.652Z,-1.73726
2024-01-09T04:02:22.154Z,-1.90843
2024-01-09T04:07:23.729Z,-1.82491
2024-01-09T04:12:25.330Z,-1.8284
2024-01-09T04:17:26.888Z,-2.67881
2024-01-09T04:22:28.440Z,-3.1164
2024-01-09T04:27:29.936Z,-2.49527
2024-01-09T04:32:31.438Z,-2.68834
2024-01-09T04:37:32.955Z,-2.19708
2024-01-09T04:42:34.432Z,-2.35427
2024-01-09T04:47:35.929Z,-1.81761
2024-01-09T04:52:37.427Z,-1.87127
2024-01-09T04:57:38.856Z,-1.51529
2024-01-09T05:02:40.299Z,-1.29427
2024-01-09T05:07:41.868Z,-1.34381
2024-01-09T05:12:43.287Z,-1.4105
2024-01-09T05:17:44.755Z,-1.38954
2024-01-09T05:22:46.384Z,-1.548
2024-01-09T05:27:47.942Z,-1.62961
2024-01-09T05:32:49.481Z,-1.77696
2024-01-09T05:37:51.207Z,-1.5896
2024-01-09T05:42:53.134Z,-1.61215
2024-01-09T05:47:54.674Z,-1.5715
2024-01-09T05:52:56.235Z,-1.68487
2024-01-09T05:57:57.660Z,-1.57785
2024-01-09T06:02:59.196Z,-1.56007
2024-01-09T06:08:00.703Z,-1.45654
2024-01-09T06:13:02.143Z,-1.59754
2024-01-09T06:18:03.752Z,-1.56293
2024-01-09T06:23:05.428Z,-1.83317
2024-01-09T06:28:09.755Z,-1.70329
2024-01-09T06:33:12.976Z,-1.69027
2024-01-09T06:38:14.574Z,-1.67217
2024-01-09T06:43:16.078Z,-1.57436
2024-01-09T06:48:17.696Z,-1.87985
2024-01-09T06:53:19.288Z,-1.66708
2024-01-09T06:58:20.762Z,-1.78172
2024-01-09T07:03:22.248Z,-1.73187
2024-01-09T07:08:23.790Z,-1.75505
2024-01-09T07:13:25.320Z,-1.43527
2024-01-09T07:18:26.867Z,-1.67947
2024-01-09T07:23:28.491Z,-2.25297
2024-01-09T07:28:32.515Z,-2.6315
2024-01-09T07:33:34.641Z,-1.93351
2024-01-09T07:38:36.176Z,-2.03672
2024-01-09T07:43:37.856Z,-2.7744
2024-01-09T07:48:39.424Z,-2.31553
2024-01-09T07:53:40.984Z,-2.39079
2024-01-09T07:58:42.643Z,-2.27774
2024-01-09T08:03:44.304Z,-1.68423
2024-01-09T08:08:48.929Z,-1.49529
2024-01-09T08:13:52.463Z,-1.56451
2024-01-09T08:18:54.027Z,-1.90208
2024-01-09T08:23:55.558Z,-1.78522
2024-01-09T08:28:57.133Z,-1.6674
2024-01-09T08:33:58.610Z,-1.59532
2024-01-09T08:39:00.257Z,-1.75822
2024-01-09T08:44:01.899Z,-2.58482
2024-01-09T08:49:03.560Z,-1.75346
2024-01-09T08:54:05.143Z,-2.09578
2024-01-09T08:59:06.635Z,-2.04116
2024-01-09T09:04:08.182Z,-2.13294
2024-01-09T09:09:09.596Z,-2.08086
2024-01-09T09:14:11.086Z,-2.36729
2024-01-09T09:19:12.940Z,-2.34411
2024-01-09T09:24:14.473Z,-2.42128
2024-01-09T09:29:23.638Z,-2.58799
2024-01-09T09:34:33.688Z,-2.69469
2024-01-09T09:39:35.303Z,-2.38031
2024-01-09T09:44:36.769Z,-2.4886
2024-01-09T09:49:38.276Z,-3.04622
2024-01-09T09:54:40.291Z,-2.71152
2024-01-09T09:59:41.823Z,-2.01544
2024-01-09T10:04:43.266Z,-1.642
2024-01-09T10:09:44.738Z,-1.95447
2024-01-09T10:14:46.209Z,-1.9405
2024-01-09T10:19:47.978Z,-2.49781
2024-01-09T10:24:49.516Z,-2.63309
2024-01-09T10:29:50.942Z,-2.61213
2024-01-09T10:34:52.459Z,-2.48955
2024-01-09T10:39:53.949Z,-2.01894
2024-01-09T10:44:55.530Z,-2.24122
2024-01-09T10:49:57.022Z,-2.12595
2024-01-09T10:54:58.526Z,-2.20915
2024-01-09T10:59:59.961Z,-2.04561
2024-01-09T11:05:01.759Z,-2.04053
2024-01-09T11:10:03.244Z,-2.1069
2024-01-09T11:15:04.734Z,-2.01925
2024-01-09T11:20:06.251Z,-1.84968
2024-01-09T11:25:07.749Z,-2.03704
2024-01-09T11:30:09.329Z,-2.6804
2024-01-09T11:35:10.778Z,-2.8849
2024-01-09T11:40:12.221Z,-2.66897
2024-01-09T11:45:13.650Z,-2.84616
2024-01-09T11:50:15.139Z,-2.87157
2024-01-09T11:55:16.614Z,-2.65277
2024-01-09T12:00:18.079Z,-2.36031
2024-01-09T12:05:19.600Z,-2.70898
2024-01-09T12:10:30.288Z,-2.77662
2024-01-09T12:15:34.886Z,-2.24249
2024-01-09T12:20:36.574Z,-2.15485
2024-01-09T12:25:38.312Z,-3.26851
2024-01-09T12:30:39.973Z,-2.88427
2024-01-09T12:35:41.888Z,-2.77757
2024-01-09T12:40:43.662Z,-2.9192
2024-01-09T12:45:45.161Z,-2.13421
2024-01-09T12:50:47.002Z,-2.53845
2024-01-09T12:55:48.460Z,-2.50225
2024-01-09T13:00:50.336Z,-2.3476
2024-01-09T13:05:51.970Z,-2.92873
2024-01-09T13:10:53.498Z,-3.96521
2024-01-09T13:15:54.884Z,-3.13831
2024-01-09T13:20:56.494Z,-2.40032
2024-01-09T13:25:58.293Z,-1.87985
2024-01-09T13:31:00.189Z,-1.76045
2024-01-09T13:36:01.953Z,-2.97477
2024-01-09T13:41:03.483Z,-3.42474
2024-01-09T13:46:05.026Z,-3.90869
2024-01-09T13:51:49.627Z,-2.93984
2024-01-09T13:56:55.612Z,-2.81409
2024-01-09T14:01:57.230Z,-2.35618
2024-01-09T14:06:58.884Z,-2.63594
2024-01-09T14:12:00.350Z,-2.42731
2024-01-09T14:17:02.081Z,-1.85317
2024-01-09T14:22:03.662Z,-2.57053
2024-01-09T14:27:05.102Z,-2.38254
2024-01-09T14:32:06.793Z,-2.55751
2024-01-09T14:37:09.783Z,-3.00018
2024-01-09T14:42:12.323Z,-2.71692
2024-01-09T14:47:14.005Z,-3.4168
2024-01-09T14:52:15.750Z,-3.0856
2024-01-09T14:57:17.276Z,-3.3914
2024-01-09T15:02:18.949Z,-3.41363
2024-01-09T15:07:20.702Z,-3.82485
2024-01-09T15:12:22.100Z,-3.39838
2024-01-09T15:17:23.622Z,-2.83949
2024-01-09T15:22:25.171Z,-2.20725
2024-01-09T15:27:26.606Z,-2.0599
2024-01-09T15:32:28.112Z,-2.06466
2024-01-09T15:37:29.679Z,-1.79569
2024-01-09T15:42:31.137Z,-2.28282
2024-01-09T15:47:32.774Z,-2.32474
2024-01-09T15:52:34.310Z,-2.30791
2024-01-09T15:57:35.693Z,-2.60863
2024-01-09T16:02:37.092Z,-2.05609
2024-01-09T16:07:38.659Z,-1.82967
2024-01-09T16:12:40.156Z,-3.11068
2024-01-09T16:17:41.630Z,-3.09735
2024-01-09T16:22:43.138Z,-2.91507
2024-01-09T16:27:44.787Z,-2.15263
2024-01-09T16:32:46.266Z,-1.63406
2024-01-09T16:37:47.753Z,-1.53276
2024-01-09T16:42:49.204Z,-1.47464
2024-01-09T16:47:50.714Z,-1.3346
2024-01-09T16:52:52.187Z,-1.74203
2024-01-09T16:57:53.841Z,-1.74552
2024-01-09T17:02:55.272Z,-1.40542
2024-01-09T17:07:56.700Z,-1.40065
2024-01-09T17:12:58.329Z,-1.25426
2024-01-09T17:17:59.728Z,-1.02308
2024-01-09T17:23:01.326Z,-0.81857
2024-01-09T17:28:02.782Z,-0.6382
2024-01-09T17:33:04.275Z,-0.33143
2024-01-09T17:38:05.773Z,-0.24442
2024-01-09T17:43:07.253Z,-0.54706
2024-01-09T17:48:08.916Z,-0.36097
2024-01-09T17:53:10.578Z,-0.16154
2024-01-09T17:58:12.142Z,0.09378
2024-01-09T18:03:13.714Z,-0.43782
2024-01-09T18:08:15.309Z,0.15634
2024-01-09T18:13:16.769Z,-0.07103
2024-01-09T18:18:18.262Z,0.19
2024-01-09T18:23:19.853Z,0.21986
2024-01-09T18:28:26.910Z,0.33799
2024-01-09T18:33:31.005Z,0.35387
2024-01-09T18:38:32.760Z,0.26114
2024-01-09T18:43:34.228Z,0.70922
2024-01-09T18:48:35.689Z,0.19096
2024-01-09T18:53:37.513Z,0.19318
2024-01-09T18:58:38.972Z,0.32116
2024-01-09T19:03:40.471Z,0.08838
2024-01-09T19:08:42.162Z,-0.15455
2024-01-09T19:13:43.613Z,0.58093
2024-01-09T19:18:45.167Z,0.49359
2024-01-09T19:23:46.652Z,0.33291
2024-01-09T19:28:48.039Z,0.40785
2024-01-09T19:33:49.521Z,0.519
2024-01-09T19:38:51.018Z,0.56314
2024-01-09T19:43:52.471Z,0.61554
2024-01-09T19:48:54.016Z,0.09474
2024-01-09T19:53:55.523Z,0.58442
2024-01-09T19:58:57.126Z,0.74955
2024-01-09T20:03:58.582Z,1.05569
2024-01-09T20:09:00.001Z,0.74542
2024-01-09T20:14:01.859Z,0.37229
2024-01-09T20:19:03.375Z,0.04869
2024-01-09T20:24:04.810Z,-0.13169
2024-01-09T20:29:06.389Z,0.59236
2024-01-09T20:34:08.232Z,0.02582
2024-01-09T20:39:09.715Z,-0.24347
2024-01-09T20:44:11.311Z,-0.17614
2024-01-09T20:49:12.763Z,0.36498
2024-01-09T20:54:14.250Z,0.58664
2024-01-09T20:59:15.968Z,0.11157
2024-01-09T21:04:17.513Z,0.24494
2024-01-09T21:09:19.129Z,0.88356
2024-01-09T21:14:20.631Z,0.90008
2024-01-09T21:19:22.307Z,1.07283
2024-01-09T21:24:23.816Z,1.30942
2024-01-09T21:29:25.408Z,1.16683
2024-01-09T21:34:27.120Z,1.43327
2024-01-09T21:39:28.523Z,1.21097
2024-01-09T21:44:30.075Z,1.33895
2024-01-09T21:49:31.660Z,1.58348
2024-01-09T21:54:33.162Z,1.86802
2024-01-09T21:59:34.715Z,1.86993
2024-01-09T22:04:36.242Z,1.78768
2024-01-09T22:09:37.636Z,1.80229
2024-01-09T22:14:39.117Z,1.82991
2024-01-09T22:19:40.587Z,1.66573
2024-01-09T22:24:42.088Z,1.3145
2024-01-09T22:29:43.600Z,1.1681
2024-01-09T22:34:44.995Z,0.67238
2024-01-09T22:39:46.509Z,1.20367
2024-01-09T22:44:48.115Z,1.25861
2024-01-09T22:49:49.622Z,0.49741
2024-01-09T22:54:51.194Z,0.55616
2024-01-09T22:59:52.658Z,0.42564
2024-01-09T23:04:54.093Z,0.84069
2024-01-09T23:09:55.577Z,0.71748
2024-01-09T23:14:57.032Z,0.08235
2024-01-09T23:19:58.511Z,-0.19425
2024-01-09T23:24:59.973Z,-0.02689
2024-01-09T23:30:01.573Z,0.44342
2024-01-09T23:35:03.300Z,-0.16249
2024-01-09T23:40:04.944Z,-0.11549
2024-01-09T23:45:06.600Z,-0.17932
2024-01-09T23:50:08.080Z,-0.54483
2024-01-09T23:55:09.698Z,-0.60517
